createdAt,value
2019-01-29T00:00:09.802Z,77.80
2019-01-29T00:02:51.907Z,78.20
2019-01-29T00:05:32.106Z,77.70
2019-01-29T00:08:12.393Z,77.80
2019-01-29T00:10:52.345Z,78.10
2019-01-29T00:13:32.628Z,78.60
2019-01-29T00:16:12.572Z,78.70
2019-01-29T00:18:52.512Z,78.20
2019-01-29T00:21:32.371Z,77.30
2019-01-29T00:24:12.808Z,77.50
2019-01-29T00:26:53.264Z,77.70
2019-01-29T00:29:32.898Z,78.50
2019-01-29T00:32:13.024Z,77.70
2019-01-29T00:34:53.135Z,78.20
2019-01-29T00:37:33.092Z,77.20
2019-01-29T00:40:13.392Z,76.80
2019-01-29T00:42:53.285Z,75.60
2019-01-29T00:45:33.305Z,75.40
2019-01-29T00:48:13.586Z,75.30
2019-01-29T00:50:53.417Z,75.20
2019-01-29T00:53:33.389Z,74.10
2019-01-29T00:56:13.768Z,74.20
2019-01-29T00:58:53.783Z,74.00
2019-01-29T01:01:33.396Z,74.30
2019-01-29T01:04:13.187Z,74.50
2019-01-29T01:06:53.362Z,74.20
2019-01-29T01:09:33.845Z,74.60
2019-01-29T01:12:13.686Z,74.60
2019-01-29T01:14:53.899Z,75.20
2019-01-29T01:17:33.854Z,74.70
2019-01-29T01:20:13.780Z,75.10
2019-01-29T01:22:53.492Z,75.00
2019-01-29T01:25:33.688Z,75.50
2019-01-29T01:28:14.020Z,75.30
2019-01-29T01:30:53.853Z,74.90
2019-01-29T01:33:34.012Z,74.70
2019-01-29T01:36:15.278Z,75.80
2019-01-29T01:38:54.987Z,75.90
2019-01-29T01:41:34.872Z,75.90
2019-01-29T01:44:14.948Z,75.40
2019-01-29T01:46:54.907Z,75.20
2019-01-29T01:49:35.390Z,75.30
2019-01-29T01:52:15.579Z,75.30
2019-01-29T01:54:58.657Z,75.30
2019-01-29T01:57:38.368Z,75.80
2019-01-29T02:00:18.408Z,75.80
2019-01-29T02:02:58.499Z,75.80
2019-01-29T02:05:38.262Z,76.20
2019-01-29T02:08:18.586Z,75.80
2019-01-29T02:10:58.509Z,76.20
2019-01-29T02:13:38.840Z,76.30
2019-01-29T02:16:18.696Z,76.40
2019-01-29T02:18:58.662Z,76.20
2019-01-29T02:21:38.775Z,76.30
2019-01-29T02:24:18.735Z,75.90
2019-01-29T02:26:58.905Z,75.90
2019-01-29T02:29:38.962Z,75.80
2019-01-29T02:32:19.114Z,75.80
2019-01-29T02:34:59.200Z,75.90
2019-01-29T02:37:39.417Z,76.30
2019-01-29T02:40:19.376Z,75.90
2019-01-29T02:42:59.000Z,76.00
2019-01-29T02:45:39.183Z,75.80
2019-01-29T02:48:19.464Z,75.70
2019-01-29T02:50:59.644Z,75.50
2019-01-29T02:53:39.596Z,75.90
2019-01-29T02:56:19.538Z,75.80
2019-01-29T02:58:59.611Z,76.20
2019-01-29T03:01:39.782Z,76.40
2019-01-29T03:04:19.564Z,76.70
2019-01-29T03:06:59.514Z,76.50
2019-01-29T03:09:39.756Z,76.60
2019-01-29T03:12:19.636Z,76.90
2019-01-29T03:14:59.878Z,77.10
2019-01-29T03:17:40.392Z,76.60
2019-01-29T03:20:20.483Z,76.60
2019-01-29T03:23:00.674Z,77.00
2019-01-29T03:25:40.904Z,77.00
2019-01-29T03:28:20.920Z,77.10
2019-01-29T03:31:01.871Z,77.20
2019-01-29T03:33:42.057Z,77.10
2019-01-29T03:36:21.923Z,77.40
2019-01-29T03:39:02.464Z,77.50
2019-01-29T03:41:44.481Z,77.50
2019-01-29T03:47:23.786Z,77.80
2019-01-29T03:50:04.121Z,77.80
2019-01-29T03:52:43.730Z,77.70
2019-01-29T03:55:23.816Z,77.20
2019-01-29T03:58:04.050Z,77.50
2019-01-29T04:00:43.913Z,77.30
2019-01-29T04:03:24.205Z,77.50
2019-01-29T04:06:04.098Z,77.60
2019-01-29T04:08:44.071Z,77.50
2019-01-29T04:11:24.191Z,77.60
2019-01-29T04:14:04.151Z,77.70
2019-01-29T04:16:44.620Z,77.40
2019-01-29T04:19:24.774Z,77.60
2019-01-29T04:22:05.178Z,77.50
2019-01-29T04:24:45.509Z,77.70
2019-01-29T04:27:25.576Z,77.40
2019-01-29T04:30:05.432Z,77.50
2019-01-29T04:32:45.709Z,77.70
2019-01-29T04:35:25.805Z,77.30
2019-01-29T04:38:06.204Z,77.40
2019-01-29T04:40:45.980Z,77.30
2019-01-29T04:43:26.212Z,77.50
2019-01-29T04:46:06.401Z,77.60
2019-01-29T04:48:46.160Z,77.50
2019-01-29T04:51:26.464Z,77.60
2019-01-29T04:54:06.503Z,77.60
2019-01-29T04:56:49.750Z,77.50
2019-01-29T04:59:29.635Z,77.50
2019-01-29T05:02:09.680Z,77.50
2019-01-29T05:04:49.602Z,77.70
2019-01-29T05:07:30.258Z,78.00
2019-01-29T05:10:10.090Z,77.80
2019-01-29T05:12:50.360Z,77.40
2019-01-29T05:15:30.415Z,77.20
2019-01-29T05:18:10.505Z,77.30
2019-01-29T05:20:50.839Z,77.30
2019-01-29T05:23:30.540Z,77.60
2019-01-29T05:26:10.425Z,77.60
2019-01-29T05:28:50.317Z,77.80
2019-01-29T05:31:30.600Z,78.00
2019-01-29T05:34:10.803Z,78.90
2019-01-29T05:36:50.854Z,78.10
2019-01-29T05:39:30.606Z,77.70
2019-01-29T05:42:10.729Z,77.60
2019-01-29T05:44:50.777Z,77.20
2019-01-29T05:47:30.872Z,77.50
2019-01-29T05:50:11.153Z,77.60
2019-01-29T05:52:51.048Z,77.60
2019-01-29T05:55:31.491Z,77.60
2019-01-29T05:58:11.352Z,77.50
2019-01-29T06:00:51.313Z,77.60
2019-01-29T06:03:31.259Z,77.60
2019-01-29T06:06:11.367Z,77.30
2019-01-29T06:08:51.492Z,77.60
2019-01-29T06:11:31.575Z,77.50
2019-01-29T06:14:11.474Z,77.40
2019-01-29T06:16:51.783Z,77.30
2019-01-29T06:19:31.948Z,77.50
2019-01-29T06:22:11.825Z,77.40
2019-01-29T06:24:52.098Z,77.30
2019-01-29T06:27:32.274Z,76.70
2019-01-29T06:30:12.634Z,77.10
2019-01-29T06:32:52.958Z,78.00
2019-01-29T06:35:33.181Z,76.70
2019-01-29T06:38:12.989Z,76.70
2019-01-29T06:40:53.552Z,76.70
2019-01-29T06:43:33.677Z,76.80
2019-01-29T06:46:13.608Z,77.00
2019-01-29T06:48:53.923Z,76.90
2019-01-29T06:51:34.975Z,76.70
2019-01-29T06:54:14.518Z,77.20
2019-01-29T06:56:54.915Z,77.20
2019-01-29T06:59:35.072Z,77.30
2019-01-29T07:02:14.799Z,77.50
2019-01-29T07:04:55.252Z,77.60
2019-01-29T07:07:35.024Z,77.60
2019-01-29T07:10:15.160Z,77.80
2019-01-29T07:12:54.882Z,77.70
2019-01-29T07:15:54.583Z,77.80
2019-01-29T07:18:38.248Z,77.60
2019-01-29T07:21:18.211Z,77.80
2019-01-29T07:23:58.224Z,78.00
2019-01-29T07:26:38.306Z,78.10
2019-01-29T07:29:18.367Z,77.90
2019-01-29T07:31:58.443Z,78.00
2019-01-29T07:34:39.004Z,77.80
2019-01-29T07:37:22.041Z,78.00
2019-01-29T07:40:00.749Z,78.10
2019-01-29T07:42:40.764Z,78.00
2019-01-29T07:45:20.872Z,77.80
2019-01-29T07:48:01.296Z,77.90
2019-01-29T07:50:41.160Z,78.20
2019-01-29T07:53:21.630Z,77.80
2019-01-29T07:56:01.334Z,77.70
2019-01-29T07:58:41.195Z,77.40
2019-01-29T08:01:21.299Z,77.80
2019-01-29T08:04:01.087Z,78.00
2019-01-29T08:06:41.308Z,77.30
2019-01-29T08:09:21.500Z,77.80
2019-01-29T08:12:01.532Z,77.80
2019-01-29T08:14:41.860Z,77.50
2019-01-29T08:17:21.711Z,77.70
2019-01-29T08:20:02.013Z,77.90
2019-01-29T08:22:41.730Z,78.00
2019-01-29T08:25:21.829Z,77.80
2019-01-29T08:28:01.886Z,77.20
2019-01-29T08:30:41.608Z,76.70
2019-01-29T08:33:22.088Z,77.20
2019-01-29T08:36:01.812Z,77.00
2019-01-29T08:38:41.923Z,76.80
2019-01-29T08:41:22.177Z,76.20
2019-01-29T08:44:02.122Z,76.40
2019-01-29T08:46:42.056Z,76.20
2019-01-29T08:49:22.225Z,76.20
2019-01-29T08:52:02.364Z,76.30
2019-01-29T08:54:42.253Z,76.40
2019-01-29T08:57:23.492Z,75.80
2019-01-29T09:00:03.793Z,75.40
2019-01-29T09:02:44.580Z,75.30
2019-01-29T09:05:24.231Z,75.40
2019-01-29T09:08:04.618Z,75.40
2019-01-29T09:10:44.212Z,74.90
2019-01-29T09:13:24.667Z,75.10
2019-01-29T09:16:04.655Z,74.50
2019-01-29T09:18:44.988Z,73.70
2019-01-29T09:21:24.620Z,74.00
2019-01-29T09:24:04.769Z,73.10
2019-01-29T09:26:45.136Z,73.60
2019-01-29T09:29:25.290Z,73.70
2019-01-29T09:32:06.637Z,73.80
2019-01-29T09:34:46.596Z,73.70
2019-01-29T09:37:26.900Z,73.40
2019-01-29T09:40:06.956Z,73.50
2019-01-29T09:42:47.138Z,73.00
2019-01-29T09:45:27.066Z,73.70
2019-01-29T09:48:06.759Z,74.10
2019-01-29T09:50:47.966Z,74.20
2019-01-29T09:53:27.918Z,77.10
2019-01-29T09:56:08.215Z,73.10
2019-01-29T09:58:48.370Z,71.00
2019-01-29T10:01:28.220Z,70.70
2019-01-29T10:04:08.185Z,71.90
2019-01-29T10:06:48.221Z,71.40
2019-01-29T10:09:28.458Z,71.60
2019-01-29T10:12:08.612Z,71.30
2019-01-29T10:14:49.174Z,71.40
2019-01-29T10:17:29.530Z,70.10
2019-01-29T10:20:09.817Z,70.30
2019-01-29T10:22:51.344Z,70.90
2019-01-29T10:25:37.590Z,69.10
2019-01-29T10:28:13.115Z,70.70
2019-01-29T10:30:53.200Z,69.20
2019-01-29T10:33:33.271Z,69.10
2019-01-29T10:36:13.344Z,68.40
2019-01-29T10:38:53.510Z,68.60
2019-01-29T10:41:33.572Z,68.40
2019-01-29T10:44:13.717Z,66.90
2019-01-29T10:46:54.466Z,66.80
2019-01-29T10:49:35.000Z,66.00
2019-01-29T10:52:15.486Z,66.40
2019-01-29T10:54:58.313Z,66.20
2019-01-29T10:57:38.502Z,66.80
2019-01-29T11:00:18.593Z,66.50
2019-01-29T11:02:58.869Z,66.10
2019-01-29T11:05:38.987Z,65.50
2019-01-29T11:08:18.678Z,64.10
2019-01-29T11:10:58.724Z,65.50
2019-01-29T11:13:38.782Z,63.40
2019-01-29T11:16:18.806Z,64.30
2019-01-29T11:19:03.421Z,63.90
2019-01-29T11:21:40.987Z,63.70
2019-01-29T11:24:20.866Z,65.40
2019-01-29T11:27:01.231Z,65.70
2019-01-29T11:29:41.235Z,65.40
2019-01-29T11:32:21.366Z,66.30
2019-01-29T11:35:01.352Z,67.30
2019-01-29T11:37:41.533Z,66.80
2019-01-29T11:40:21.431Z,61.80
2019-01-29T11:43:02.660Z,63.80
2019-01-29T11:45:42.827Z,64.60
2019-01-29T11:48:22.984Z,65.90
2019-01-29T11:51:02.714Z,64.20
2019-01-29T11:53:44.040Z,63.70
2019-01-29T11:56:24.498Z,64.70
2019-01-29T11:59:04.274Z,64.20
2019-01-29T12:01:44.267Z,64.90
2019-01-29T12:04:24.346Z,64.60
2019-01-29T12:07:04.539Z,66.90
2019-01-29T12:09:44.600Z,67.20
2019-01-29T12:12:24.631Z,67.10
2019-01-29T12:15:04.379Z,63.10
2019-01-29T12:17:44.433Z,62.90
2019-01-29T12:20:24.538Z,63.90
2019-01-29T12:23:04.386Z,61.50
2019-01-29T12:25:44.629Z,62.60
2019-01-29T12:28:24.446Z,61.90
2019-01-29T12:31:04.561Z,64.30
2019-01-29T12:33:45.564Z,63.70
2019-01-29T12:36:25.580Z,62.70
2019-01-29T12:39:05.749Z,63.10
2019-01-29T12:41:47.598Z,64.50
2019-01-29T12:44:27.876Z,64.40
2019-01-29T12:47:07.716Z,64.30
2019-01-29T12:49:47.906Z,65.70
2019-01-29T12:52:47.660Z,67.20
2019-01-29T12:55:27.528Z,67.00
2019-01-29T12:58:07.497Z,66.40
2019-01-29T13:00:50.763Z,65.00
2019-01-29T13:03:30.924Z,64.10
2019-01-29T13:06:10.970Z,64.80
2019-01-29T13:08:51.419Z,65.60
2019-01-29T13:11:31.960Z,65.00
2019-01-29T13:14:11.933Z,65.00
2019-01-29T13:16:52.056Z,64.40
2019-01-29T13:19:31.983Z,66.40
2019-01-29T13:22:11.967Z,66.60
2019-01-29T13:24:52.280Z,65.80
2019-01-29T13:27:32.241Z,66.50
2019-01-29T13:30:12.563Z,64.20
2019-01-29T13:32:52.557Z,65.00
2019-01-29T13:35:32.768Z,63.20
2019-01-29T13:38:12.658Z,61.60
2019-01-29T13:40:52.612Z,61.30
2019-01-29T13:43:33.764Z,61.00
2019-01-29T13:46:14.134Z,60.40
2019-01-29T13:48:53.736Z,60.80
2019-01-29T13:51:34.138Z,60.70
2019-01-29T13:54:14.220Z,59.90
2019-01-29T13:56:53.934Z,60.00
2019-01-29T13:59:34.078Z,58.20
2019-01-29T14:02:14.508Z,58.40
2019-01-29T14:04:54.451Z,58.60
2019-01-29T14:07:34.503Z,58.80
2019-01-29T14:10:14.613Z,56.40
2019-01-29T14:12:54.644Z,60.40
2019-01-29T14:15:41.452Z,58.60
2019-01-29T14:18:21.825Z,59.50
2019-01-29T14:21:02.084Z,57.50
2019-01-29T14:23:41.770Z,56.60
2019-01-29T14:26:21.914Z,52.80
2019-01-29T14:29:01.980Z,54.60
2019-01-29T14:31:42.006Z,53.30
2019-01-29T14:34:22.253Z,51.30
2019-01-29T14:37:02.214Z,52.00
2019-01-29T14:39:42.014Z,51.80
2019-01-29T14:42:22.225Z,51.40
2019-01-29T14:45:02.404Z,51.80
2019-01-29T14:47:43.889Z,52.60
2019-01-29T14:50:24.418Z,50.60
2019-01-29T14:53:04.666Z,49.40
2019-01-29T14:55:44.810Z,50.10
2019-01-29T14:58:24.954Z,51.00
2019-01-29T15:01:05.166Z,52.40
2019-01-29T15:03:45.440Z,51.40
2019-01-29T15:06:32.259Z,52.00
2019-01-29T15:09:07.367Z,53.00
2019-01-29T15:11:47.192Z,51.90
2019-01-29T15:14:27.690Z,54.20
2019-01-29T15:17:26.975Z,53.50
2019-01-29T15:20:07.356Z,53.90
2019-01-29T15:22:47.353Z,56.00
2019-01-29T15:25:27.657Z,56.90
2019-01-29T15:28:07.644Z,55.80
2019-01-29T15:30:47.936Z,57.80
2019-01-29T15:33:27.661Z,56.90
2019-01-29T15:36:07.374Z,56.80
2019-01-29T15:38:47.606Z,58.30
2019-01-29T15:41:27.804Z,57.80
2019-01-29T15:44:07.834Z,58.30
2019-01-29T15:46:48.054Z,58.10
2019-01-29T15:49:28.069Z,59.30
2019-01-29T15:52:08.182Z,60.00
2019-01-29T15:54:48.043Z,60.30
2019-01-29T15:57:28.072Z,59.80
2019-01-29T16:00:07.961Z,60.00
2019-01-29T16:02:48.109Z,60.70
2019-01-29T16:05:28.053Z,60.50
2019-01-29T16:08:08.140Z,59.50
2019-01-29T16:10:48.161Z,60.00
2019-01-29T16:13:28.290Z,60.00
2019-01-29T16:16:08.390Z,60.10
2019-01-29T16:18:48.255Z,60.40
2019-01-29T16:21:32.213Z,61.30
2019-01-29T16:24:12.430Z,61.70
2019-01-29T16:26:52.545Z,62.10
2019-01-29T16:29:32.514Z,63.30
2019-01-29T16:32:12.598Z,63.30
2019-01-29T16:34:53.131Z,63.90
2019-01-29T16:37:32.887Z,64.00
2019-01-29T16:40:12.908Z,64.50
2019-01-29T16:42:52.940Z,65.10
2019-01-29T16:45:33.018Z,65.10
2019-01-29T16:48:13.450Z,65.00
2019-01-29T16:50:53.364Z,64.40
2019-01-29T16:53:33.923Z,64.80
2019-01-29T16:56:13.706Z,65.70
2019-01-29T16:58:54.667Z,66.00
2019-01-29T17:01:34.838Z,65.80
2019-01-29T17:04:15.038Z,65.60
2019-01-29T17:06:54.856Z,65.50
2019-01-29T17:09:34.824Z,65.70
2019-01-29T17:12:14.813Z,65.30
2019-01-29T17:14:54.888Z,64.80
2019-01-29T17:17:34.982Z,65.30
2019-01-29T17:20:15.204Z,66.70
2019-01-29T17:22:55.860Z,65.90
2019-01-29T17:25:35.523Z,65.20
2019-01-29T17:28:15.714Z,64.90
2019-01-29T17:30:56.062Z,63.70
2019-01-29T17:33:35.889Z,63.70
2019-01-29T17:36:15.887Z,64.10
2019-01-29T17:38:56.140Z,64.50
2019-01-29T17:41:35.999Z,64.10
2019-01-29T17:44:15.994Z,64.50
2019-01-29T17:46:56.372Z,63.90
2019-01-29T17:49:36.418Z,63.50
2019-01-29T17:52:16.109Z,64.10
2019-01-29T17:54:56.247Z,63.20
2019-01-29T17:57:36.381Z,63.70
2019-01-29T18:00:16.808Z,63.70
2019-01-29T18:02:56.854Z,62.80
2019-01-29T18:05:36.717Z,60.80
2019-01-29T18:08:17.000Z,62.60
2019-01-29T18:10:57.155Z,62.10
2019-01-29T18:13:36.957Z,63.20
2019-01-29T18:16:17.264Z,62.00
2019-01-29T18:18:56.919Z,61.30
2019-01-29T18:21:37.044Z,60.20
2019-01-29T18:24:17.223Z,59.80
2019-01-29T18:26:57.248Z,59.70
2019-01-29T18:29:37.381Z,58.90
2019-01-29T18:32:17.408Z,60.40
2019-01-29T18:34:58.052Z,61.10
2019-01-29T18:37:37.794Z,61.20
2019-01-29T18:40:18.344Z,60.90
2019-01-29T18:42:58.223Z,60.50
2019-01-29T18:45:38.403Z,61.00
2019-01-29T18:48:18.312Z,61.30
2019-01-29T18:50:58.759Z,60.50
2019-01-29T18:53:38.562Z,61.30
2019-01-29T18:56:18.489Z,60.90
2019-01-29T18:58:58.390Z,60.80
2019-01-29T19:01:38.606Z,60.00
2019-01-29T19:04:18.632Z,59.40
2019-01-29T19:06:59.069Z,61.20
2019-01-29T19:09:39.178Z,61.00
2019-01-29T19:12:20.061Z,59.50
2019-01-29T19:15:00.288Z,59.90
2019-01-29T19:17:39.974Z,59.90
2019-01-29T19:20:20.201Z,59.00
2019-01-29T19:23:00.188Z,59.20
2019-01-29T19:25:40.229Z,59.90
2019-01-29T19:28:22.192Z,58.80
2019-01-29T19:31:04.756Z,58.70
2019-01-29T19:33:44.099Z,59.00
2019-01-29T19:36:24.304Z,59.80
2019-01-29T19:39:04.295Z,59.30
2019-01-29T19:41:44.695Z,59.20
2019-01-29T19:44:24.561Z,59.50
2019-01-29T19:47:04.592Z,59.50
2019-01-29T19:49:45.149Z,59.40
2019-01-29T19:52:26.819Z,59.60
2019-01-29T19:55:06.941Z,60.00
2019-01-29T19:57:47.028Z,60.10
2019-01-29T20:00:27.052Z,59.50
2019-01-29T20:03:07.405Z,60.50
2019-01-29T20:05:47.279Z,59.50
2019-01-29T20:08:27.334Z,59.10
2019-01-29T20:11:06.907Z,59.00
2019-01-29T20:13:47.048Z,59.70
2019-01-29T20:16:27.402Z,59.10
2019-01-29T20:19:07.185Z,60.60
2019-01-29T20:21:47.922Z,59.10
2019-01-29T20:24:27.689Z,59.20
2019-01-29T20:27:08.303Z,58.90
2019-01-29T20:29:48.049Z,59.20
2019-01-29T20:32:28.296Z,59.50
2019-01-29T20:35:08.225Z,59.30
2019-01-29T20:37:48.704Z,59.40
2019-01-29T20:40:28.546Z,59.00
2019-01-29T20:43:08.568Z,59.30
2019-01-29T20:45:48.609Z,59.00
2019-01-29T20:48:28.699Z,58.70
2019-01-29T20:51:08.807Z,58.80
2019-01-29T20:53:49.302Z,58.80
2019-01-29T20:56:28.890Z,57.90
2019-01-29T20:59:08.926Z,57.90
2019-01-29T21:01:49.418Z,57.90
2019-01-29T21:04:29.156Z,58.50
2019-01-29T21:07:09.463Z,58.10
2019-01-29T21:09:49.563Z,58.10
2019-01-29T21:12:29.470Z,57.80
2019-01-29T21:15:09.789Z,58.30
2019-01-29T21:17:49.821Z,57.80
2019-01-29T21:20:29.889Z,57.70
2019-01-29T21:23:10.708Z,57.80
2019-01-29T21:25:50.846Z,57.30
2019-01-29T21:28:30.446Z,57.80
2019-01-29T21:31:10.616Z,57.40
2019-01-29T21:33:50.528Z,56.80
2019-01-29T21:42:58.939Z,56.70
2019-01-29T21:45:39.582Z,56.10
2019-01-29T21:48:20.198Z,56.30
2019-01-29T21:51:00.380Z,56.10
2019-01-29T21:53:40.225Z,57.00
2019-01-29T21:56:20.712Z,55.90
2019-01-29T21:59:00.416Z,56.20
2019-01-29T22:01:40.696Z,56.50
2019-01-29T22:04:21.011Z,56.60
2019-01-29T22:07:01.381Z,56.40
2019-01-29T22:09:41.330Z,56.40
2019-01-29T22:12:21.452Z,56.40
2019-01-29T22:15:01.685Z,56.80
2019-01-29T22:17:42.666Z,56.60
2019-01-29T22:20:22.800Z,56.60
2019-01-29T22:23:03.062Z,56.60
2019-01-29T22:25:43.192Z,56.30
2019-01-29T22:28:23.201Z,56.00
2019-01-29T22:31:03.069Z,55.40
2019-01-29T22:33:42.609Z,55.30
2019-01-29T22:36:22.834Z,55.40
2019-01-29T22:39:04.247Z,55.40
2019-01-29T22:41:45.974Z,54.90
2019-01-29T22:44:26.579Z,55.60
2019-01-29T22:47:06.503Z,55.70
2019-01-29T22:49:46.763Z,55.40
2019-01-29T22:52:26.844Z,55.80
2019-01-29T22:55:07.027Z,56.60
2019-01-29T22:57:47.086Z,56.70
2019-01-29T23:00:32.150Z,56.00
2019-01-29T23:03:12.953Z,55.70
2019-01-29T23:05:53.108Z,55.10
2019-01-29T23:08:33.443Z,54.90
2019-01-29T23:11:13.652Z,55.70
2019-01-29T23:13:53.529Z,54.40
2019-01-29T23:16:33.503Z,54.90
2019-01-29T23:19:13.842Z,54.10
2019-01-29T23:21:53.830Z,54.80
2019-01-29T23:24:33.932Z,54.50
2019-01-29T23:27:13.982Z,55.40
2019-01-29T23:29:54.057Z,54.40
2019-01-29T23:32:33.786Z,55.10
2019-01-29T23:35:13.996Z,55.30
2019-01-29T23:37:54.774Z,55.70
2019-01-29T23:40:34.568Z,56.40
2019-01-29T23:43:14.730Z,56.50
2019-01-29T23:45:55.976Z,57.00
2019-01-29T23:48:36.047Z,57.50
2019-01-29T23:51:15.857Z,57.30
2019-01-29T23:53:56.468Z,57.10
2019-01-29T23:56:36.611Z,57.40
2019-01-29T23:59:16.341Z,57.00
